Time;durP1;ratioP1;P1;durP2;ratioP2;P2;SDS_P1;SDS_P2;PMS_P1;PMS_P2;Temp;Humidity;BMP_temperature;BMP_pressure;BME280_temperature;BME280_humidity;BME280_pressure;Samples;Min_cycle;Max_cycle;Signal;HPM_P1;HPM_P2
2023/10/04 00:00:19;;;;;;;6.83;6.40;;;15.30;32.80;;;;;;5016507;28;20420;-79
2023/10/04 00:02:46;;;;;;;6.77;6.27;;;15.40;31.60;;;;;;5013993;28;20495;-78
2023/10/04 00:05:15;;;;;;;6.40;6.00;;;15.30;32.00;;;;;;5007149;28;20413;-81
2023/10/04 00:07:44;;;;;;;6.10;5.80;;;15.20;32.40;;;;;;5006512;28;20737;-80
2023/10/04 00:10:11;;;;;;;6.27;5.83;;;15.30;32.10;;;;;;5005696;28;20416;-82
2023/10/04 00:12:37;;;;;;;6.40;6.00;;;15.30;31.70;;;;;;5023440;28;20416;-80
2023/10/04 00:15:09;;;;;;;5.67;5.40;;;15.20;32.10;;;;;;5024195;28;20412;-81
2023/10/04 00:17:35;;;;;;;5.97;5.67;;;15.40;32.30;;;;;;5024881;28;20428;-81
2023/10/04 00:20:03;;;;;;;5.40;5.10;;;15.60;31.40;;;;;;5007769;28;20420;-80
2023/10/04 00:22:28;;;;;;;6.27;5.87;;;15.70;30.80;;;;;;5006866;28;20420;-80
2023/10/04 00:24:54;;;;;;;6.57;6.07;;;15.80;30.10;;;;;;5011161;28;20436;-81
2023/10/04 00:27:20;;;;;;;6.23;5.83;;;16.00;29.90;;;;;;5015289;28;20301;-81
2023/10/04 00:29:45;;;;;;;6.30;5.87;;;15.80;29.40;;;;;;5015440;28;20180;-78
2023/10/04 00:32:13;;;;;;;7.03;6.47;;;15.60;30.00;;;;;;5033570;28;20257;-79
2023/10/04 00:34:40;;;;;;;6.33;6.03;;;15.40;30.90;;;;;;5015750;28;20200;-78
2023/10/04 00:37:07;;;;;;;6.90;6.53;;;15.30;31.60;;;;;;5015929;28;20452;-78
2023/10/04 00:39:34;;;;;;;7.50;7.03;;;15.30;31.50;;;;;;5014443;28;20472;-79
2023/10/04 00:42:00;;;;;;;6.10;5.80;;;15.40;31.60;;;;;;5014618;28;20451;-82
2023/10/04 00:44:26;;;;;;;6.33;5.93;;;15.60;30.70;;;;;;5009459;28;20417;-80
2023/10/04 00:46:52;;;;;;;6.80;6.30;;;15.60;30.20;;;;;;5007488;28;20193;-80
2023/10/04 00:49:18;;;;;;;6.60;6.20;;;15.50;30.20;;;;;;5007917;28;20471;-81
2023/10/04 00:51:44;;;;;;;6.83;6.43;;;15.40;30.70;;;;;;5009504;28;20788;-82
2023/10/04 00:54:10;;;;;;;6.60;6.20;;;15.20;31.80;;;;;;5034584;28;20161;-81
2023/10/04 00:56:38;;;;;;;5.80;5.50;;;15.10;31.30;;;;;;5018763;28;20281;-79
2023/10/04 00:59:04;;;;;;;6.33;5.93;;;15.10;32.00;;;;;;5018173;28;20420;-79
2023/10/04 01:01:33;;;;;;;6.20;5.87;;;15.20;32.00;;;;;;5018406;28;20742;-81
2023/10/04 01:04:02;;;;;;;5.77;5.47;;;15.50;31.40;;;;;;5017748;28;20455;-79
2023/10/04 01:06:30;;;;;;;6.20;5.80;;;15.70;30.40;;;;;;5008048;28;20487;-80
2023/10/04 01:08:56;;;;;;;6.57;5.90;;;15.80;29.60;;;;;;5002578;28;20479;-80
2023/10/04 01:11:22;;;;;;;6.60;6.27;;;15.90;29.00;;;;;;5003628;28;20421;-81
2023/10/04 01:13:48;;;;;;;7.07;6.47;;;15.80;28.90;;;;;;5020674;28;20459;-81
2023/10/04 01:16:15;;;;;;;6.87;6.57;;;15.50;29.70;;;;;;5002090;28;20173;-82
2023/10/04 01:18:44;;;;;;;6.67;6.23;;;15.30;30.30;;;;;;5003304;28;20177;-81
2023/10/04 01:21:10;;;;;;;6.60;6.20;;;15.20;30.90;;;;;;5002398;28;20482;-81
2023/10/04 01:23:39;;;;;;;7.07;6.57;;;15.00;31.40;;;;;;5002634;28;20881;-79
2023/10/04 01:26:04;;;;;;;6.60;6.30;;;14.90;31.70;;;;;;5002511;28;20413;-80
2023/10/04 01:28:30;;;;;;;6.73;6.33;;;14.90;32.00;;;;;;5002339;28;20554;-80
2023/10/04 01:30:59;;;;;;;6.43;6.03;;;14.80;32.20;;;;;;5019989;28;20165;-81
2023/10/04 01:33:25;;;;;;;6.93;6.63;;;14.70;32.50;;;;;;5001278;28;20555;-80
2023/10/04 01:35:54;;;;;;;7.60;7.10;;;14.70;32.80;;;;;;5001494;28;20443;-79
2023/10/04 01:38:32;;;;;;;6.10;5.80;;;14.70;33.00;;;;;;5000590;28;20479;-79
2023/10/04 01:40:58;;;;;;;6.40;6.10;;;14.60;33.10;;;;;;5001519;28;20950;-80
2023/10/04 01:43:24;;;;;;;6.80;6.40;;;14.60;33.10;;;;;;5000602;28;20459;-80
2023/10/04 01:45:52;;;;;;;6.80;6.47;;;14.60;33.00;;;;;;5000812;28;20920;-80
2023/10/04 01:48:19;;;;;;;6.80;6.30;;;14.60;33.50;;;;;;5019371;28;20459;-80
2023/10/04 01:50:46;;;;;;;6.80;6.43;;;14.60;33.60;;;;;;5019557;28;20408;-81
2023/10/04 01:53:13;;;;;;;7.00;6.60;;;14.60;32.90;;;;;;5018971;28;20477;-81
2023/10/04 01:55:40;;;;;;;6.53;6.13;;;14.60;33.10;;;;;;5000971;28;20420;-80
2023/10/04 01:58:06;;;;;;;6.63;6.23;;;14.60;33.00;;;;;;5000612;28;20508;-80
2023/10/04 02:00:33;;;;;;;7.27;6.73;;;14.60;32.90;;;;;;5002565;28;20416;-81
2023/10/04 02:03:01;;;;;;;6.53;6.20;;;14.50;33.10;;;;;;5020506;28;20423;-82
2023/10/04 02:05:31;;;;;;;6.43;6.03;;;14.60;33.00;;;;;;5005783;28;20456;-81
2023/10/04 02:07:57;;;;;;;7.33;6.93;;;14.60;32.90;;;;;;5006346;28;20464;-79
2023/10/04 02:10:24;;;;;;;6.33;6.03;;;14.70;33.20;;;;;;5006806;28;20412;-80
2023/10/04 02:12:56;;;;;;;6.70;6.30;;;14.80;33.00;;;;;;5012896;28;20425;-79
2023/10/04 02:15:22;;;;;;;6.63;6.20;;;14.70;32.20;;;;;;5008120;28;20949;-80
2023/10/04 02:17:49;;;;;;;7.17;6.77;;;14.70;32.00;;;;;;5001085;28;20479;-78
2023/10/04 02:20:24;;;;;;;6.40;6.00;;;14.70;32.70;;;;;;5000642;28;20618;-81
2023/10/04 02:22:50;;;;;;;6.93;6.53;;;14.60;32.70;;;;;;4999924;28;20728;-81
2023/10/04 02:25:17;;;;;;;7.10;6.70;;;14.60;32.90;;;;;;4999566;28;20923;-79
2023/10/04 02:27:44;;;;;;;6.80;6.50;;;14.60;32.60;;;;;;4999284;28;20451;-80
2023/10/04 02:30:15;;;;;;;7.30;6.80;;;14.60;32.70;;;;;;4999318;28;21303;-81
2023/10/04 02:32:43;;;;;;;7.03;6.53;;;14.60;33.10;;;;;;5016614;28;20775;-78
2023/10/04 02:35:26;;;;;;;7.03;6.63;;;14.50;33.30;;;;;;4998898;28;20424;-79
2023/10/04 02:38:00;;;;;;;6.37;6.07;;;14.40;33.50;;;;;;5016126;28;20440;-79
2023/10/04 02:40:32;;;;;;;6.80;6.30;;;14.40;33.50;;;;;;5000569;28;20920;-80
2023/10/04 02:42:58;;;;;;;6.47;6.07;;;14.40;33.60;;;;;;5003788;28;20432;-79
2023/10/04 02:45:26;;;;;;;6.20;5.80;;;14.40;33.60;;;;;;5023275;28;20421;-79
2023/10/04 02:47:52;;;;;;;6.33;5.93;;;14.40;33.80;;;;;;5007874;28;20463;-82
2023/10/04 02:50:20;;;;;;;7.23;6.73;;;14.50;33.30;;;;;;5007439;28;20413;-79
2023/10/04 02:52:46;;;;;;;5.93;5.63;;;14.60;33.60;;;;;;5007868;28;20423;-77
2023/10/04 02:55:17;;;;;;;6.97;6.57;;;14.60;33.30;;;;;;5008063;28;20420;-80
2023/10/04 02:57:43;;;;;;;7.03;6.63;;;14.60;33.50;;;;;;5009435;28;20444;-80
2023/10/04 03:00:17;;;;;;;7.20;6.60;;;14.60;33.00;;;;;;5008594;28;20424;-81
2023/10/04 03:02:44;;;;;;;6.27;5.93;;;14.60;33.30;;;;;;5009248;28;20421;-81
2023/10/04 03:05:11;;;;;;;6.40;6.00;;;14.60;33.30;;;;;;5009307;28;20420;-82
2023/10/04 03:07:37;;;;;;;6.57;6.23;;;14.50;33.00;;;;;;5009154;28;20467;-80
2023/10/04 03:10:03;;;;;;;7.07;6.60;;;14.40;33.50;;;;;;5010824;28;20787;-80
2023/10/04 03:12:30;;;;;;;7.43;7.00;;;14.40;33.90;;;;;;5011067;28;20657;-81
2023/10/04 03:14:56;;;;;;;6.93;6.63;;;14.20;35.10;;;;;;5010641;28;20423;-82
2023/10/04 03:17:22;;;;;;;6.57;6.23;;;14.20;34.70;;;;;;5014294;28;20428;-80
2023/10/04 03:19:47;;;;;;;6.83;6.33;;;14.20;35.00;;;;;;5019816;28;20206;-80
2023/10/04 03:22:18;;;;;;;7.37;6.93;;;14.20;34.50;;;;;;5012817;28;20712;-82
2023/10/04 03:24:45;;;;;;;7.20;6.80;;;14.20;34.50;;;;;;5016529;28;20193;-79
2023/10/04 03:27:12;;;;;;;7.80;7.40;;;14.20;34.20;;;;;;5020448;28;20432;-78
2023/10/04 03:29:39;;;;;;;7.67;7.27;;;14.20;34.50;;;;;;5030956;28;20466;-79
2023/10/04 03:32:05;;;;;;;8.03;7.53;;;14.20;34.50;;;;;;5022964;28;20428;-80
2023/10/04 03:34:30;;;;;;;8.47;7.97;;;14.20;34.30;;;;;;5005437;28;20496;-82
2023/10/04 03:37:08;;;;;;;6.80;6.50;;;14.20;34.20;;;;;;5022898;28;20494;-81
2023/10/04 03:39:34;;;;;;;7.47;6.97;;;14.20;34.30;;;;;;5006488;28;20215;-80
2023/10/04 03:42:00;;;;;;;7.47;7.07;;;14.20;34.20;;;;;;5006422;28;20475;-81
2023/10/04 03:44:25;;;;;;;7.97;7.47;;;14.20;34.00;;;;;;5023203;28;20833;-80
2023/10/04 03:46:53;;;;;;;7.90;7.40;;;14.10;34.10;;;;;;5006130;28;20193;-84
2023/10/04 03:49:21;;;;;;;7.60;7.20;;;14.10;34.00;;;;;;5024567;28;20193;-82
2023/10/04 03:51:49;;;;;;;7.20;6.80;;;14.10;34.10;;;;;;5008793;28;20451;-81
2023/10/04 03:54:15;;;;;;;7.63;7.23;;;14.10;34.10;;;;;;5007668;28;20416;-80
2023/10/04 03:56:43;;;;;;;8.37;7.87;;;14.10;34.00;;;;;;5008451;28;20516;-80
2023/10/04 03:59:10;;;;;;;8.47;8.00;;;14.10;33.90;;;;;;5012993;28;20181;-78
2023/10/04 04:01:37;;;;;;;8.53;8.13;;;14.10;34.00;;;;;;5025089;28;20424;-79
2023/10/04 04:04:14;;;;;;;8.93;8.43;;;14.10;34.00;;;;;;5021676;28;20408;-81
2023/10/04 04:06:40;;;;;;;9.30;8.60;;;14.10;33.60;;;;;;5023736;28;20519;-82
2023/10/04 04:09:08;;;;;;;8.53;8.13;;;14.10;33.50;;;;;;5004703;28;20467;-81
2023/10/04 04:11:35;;;;;;;7.33;6.93;;;14.10;33.70;;;;;;5022090;28;20419;-81
2023/10/04 04:14:01;;;;;;;8.07;7.57;;;14.10;33.60;;;;;;5021525;28;20412;-80
2023/10/04 04:16:26;;;;;;;9.07;8.57;;;14.10;33.80;;;;;;5021212;28;20685;-79
2023/10/04 04:18:54;;;;;;;8.00;7.70;;;14.20;33.40;;;;;;5003457;28;20768;-81
2023/10/04 04:21:21;;;;;;;8.17;7.53;;;14.00;34.00;;;;;;4988780;28;20797;-78
2023/10/04 04:23:46;;;;;;;8.03;7.57;;;14.00;34.00;;;;;;4984086;28;20929;-80
2023/10/04 04:26:12;;;;;;;8.40;7.90;;;14.00;34.20;;;;;;5001707;28;20452;-81
2023/10/04 04:28:38;;;;;;;8.97;8.57;;;14.00;34.50;;;;;;5002289;28;20208;-80
2023/10/04 04:31:19;;;;;;;8.60;8.20;;;14.00;34.10;;;;;;5000272;28;20213;-81
2023/10/04 04:33:45;;;;;;;7.63;7.23;;;13.90;34.90;;;;;;4979839;28;20550;-81
2023/10/04 04:36:34;;;;;;;8.70;8.20;;;14.00;34.20;;;;;;4979650;28;20413;-80
2023/10/04 04:38:56;;;;;;;9.23;8.83;;;14.00;34.00;;;;;;4998047;28;20248;-79
2023/10/04 04:41:25;;;;;;;8.90;8.40;;;14.00;34.00;;;;;;4979902;28;20988;-81
2023/10/04 04:43:51;;;;;;;10.60;9.80;;;13.90;34.00;;;;;;4997479;28;20181;-78
2023/10/04 04:46:18;;;;;;;8.80;8.40;;;13.90;34.20;;;;;;4982562;28;20440;-80
2023/10/04 04:48:46;;;;;;;8.13;7.67;;;13.90;33.90;;;;;;5003247;28;20468;-81
2023/10/04 04:51:12;;;;;;;8.23;7.00;;;13.80;33.80;;;;;;4991224;28;20424;-78
2023/10/04 04:53:45;;;;;;;8.83;8.23;;;13.90;34.20;;;;;;5003006;28;20413;-78
2023/10/04 04:56:14;;;;;;;9.30;8.60;;;13.80;33.90;;;;;;4985250;28;20418;-81
2023/10/04 04:58:44;;;;;;;9.43;8.87;;;13.80;34.00;;;;;;4985068;28;20518;-79
2023/10/04 05:01:13;;;;;;;7.50;7.10;;;13.80;34.00;;;;;;5001318;28;20417;-79
2023/10/04 05:03:45;;;;;;;9.07;8.60;;;13.80;33.40;;;;;;4982451;28;20425;-77
2023/10/04 05:06:25;;;;;;;9.50;8.90;;;13.70;33.60;;;;;;5004797;28;20448;-79
2023/10/04 05:08:57;;;;;;;8.20;7.70;;;13.70;33.60;;;;;;5006343;28;20475;-80
2023/10/04 05:11:26;;;;;;;8.50;7.97;;;13.70;33.60;;;;;;4986946;28;20416;-79
2023/10/04 05:13:56;;;;;;;8.20;7.80;;;13.70;33.10;;;;;;4984715;28;20475;-80
2023/10/04 05:16:22;;;;;;;8.60;8.10;;;13.70;33.30;;;;;;5001569;28;20412;-81
2023/10/04 05:18:47;;;;;;;8.50;8.07;;;13.70;32.90;;;;;;5002424;28;20417;-80
2023/10/04 05:21:14;;;;;;;7.97;7.57;;;13.80;32.90;;;;;;5002014;28;20186;-80
2023/10/04 05:23:40;;;;;;;8.40;7.70;;;13.80;32.30;;;;;;4984336;28;20186;-79
2023/10/04 05:26:08;;;;;;;9.60;8.80;;;13.90;32.60;;;;;;4984352;28;20425;-79
2023/10/04 05:28:35;;;;;;;8.27;7.67;;;14.10;32.00;;;;;;4984084;28;20826;-80
2023/10/04 05:31:01;;;;;;;9.13;8.47;;;14.10;31.30;;;;;;4998568;28;20413;-80
2023/10/04 05:33:26;;;;;;;9.20;8.70;;;14.20;30.60;;;;;;4995049;28;20420;-78
2023/10/04 05:35:55;;;;;;;9.47;8.80;;;14.20;30.60;;;;;;4996374;28;20882;-81
2023/10/04 05:38:36;;;;;;;8.83;8.37;;;14.30;30.70;;;;;;4977614;28;20197;-83
2023/10/04 05:41:03;;;;;;;9.67;9.07;;;14.50;29.60;;;;;;4978738;28;20425;-79
2023/10/04 05:43:34;;;;;;;7.57;7.07;;;14.60;30.00;;;;;;4985198;28;20413;-78
2023/10/04 05:46:00;;;;;;;8.97;8.37;;;14.70;29.50;;;;;;4990393;28;20429;-79
2023/10/04 05:48:26;;;;;;;7.70;7.40;;;14.70;28.90;;;;;;4984702;28;20538;-79
2023/10/04 05:50:54;;;;;;;8.10;7.60;;;14.80;29.30;;;;;;4981327;28;20174;-79
2023/10/04 05:53:21;;;;;;;8.40;7.90;;;15.00;28.80;;;;;;4983691;28;20413;-80
2023/10/04 05:55:48;;;;;;;8.50;8.00;;;15.10;28.70;;;;;;4988302;28;20431;-77
2023/10/04 05:58:14;;;;;;;7.87;7.47;;;15.30;28.50;;;;;;5007791;28;20413;-80
2023/10/04 06:00:42;;;;;;;8.73;8.03;;;15.40;27.70;;;;;;5010349;28;20416;-79
2023/10/04 06:03:12;;;;;;;8.80;8.40;;;15.40;27.50;;;;;;4987999;28;20328;-81
2023/10/04 06:05:40;;;;;;;9.40;8.90;;;15.30;27.30;;;;;;4986072;28;20928;-81
2023/10/04 06:08:12;;;;;;;9.30;8.70;;;15.20;27.80;;;;;;4986659;28;20463;-80
2023/10/04 06:10:38;;;;;;;9.10;8.43;;;15.00;28.10;;;;;;4987142;28;20398;-80
2023/10/04 06:13:11;;;;;;;10.00;9.20;;;14.90;28.60;;;;;;4987744;28;20428;-81
2023/10/04 06:15:42;;;;;;;8.90;8.23;;;14.90;28.80;;;;;;4987978;28;20447;-81
2023/10/04 06:18:08;;;;;;;7.67;7.37;;;15.10;28.30;;;;;;4987650;28;20587;-80
2023/10/04 06:20:36;;;;;;;9.07;8.57;;;15.20;28.20;;;;;;4989966;28;20424;-82
2023/10/04 06:23:08;;;;;;;9.70;9.10;;;15.20;27.50;;;;;;4991749;28;20424;-80
2023/10/04 06:25:38;;;;;;;10.20;9.70;;;15.10;27.70;;;;;;5009679;28;20444;-80
2023/10/04 06:28:04;;;;;;;8.80;8.40;;;15.00;27.80;;;;;;4987512;28;20495;-79
2023/10/04 06:30:32;;;;;;;9.27;8.60;;;15.00;28.50;;;;;;5012659;28;20416;-80
2023/10/04 06:32:59;;;;;;;8.03;7.47;;;15.10;27.20;;;;;;4990852;28;20198;-79
2023/10/04 06:35:26;;;;;;;9.03;8.53;;;15.00;26.60;;;;;;4989848;28;20421;-79
2023/10/04 06:37:53;;;;;;;9.00;8.30;;;14.80;27.00;;;;;;4991334;28;20444;-78
2023/10/04 06:40:20;;;;;;;9.57;9.03;;;14.70;27.60;;;;;;5009112;28;20451;-78
2023/10/04 06:42:50;;;;;;;7.80;7.30;;;14.70;27.80;;;;;;5006087;28;20932;-76
2023/10/04 06:45:17;;;;;;;7.90;7.40;;;14.70;27.80;;;;;;4985485;28;20417;-76
2023/10/04 06:47:44;;;;;;;7.90;7.50;;;14.70;27.30;;;;;;5007986;28;20441;-79
2023/10/04 06:50:13;;;;;;;8.10;7.70;;;14.70;27.40;;;;;;5004744;28;20413;-78
2023/10/04 06:52:41;;;;;;;8.73;8.27;;;14.80;27.30;;;;;;5004130;28;20420;-78
2023/10/04 06:55:08;;;;;;;8.73;8.13;;;14.80;26.90;;;;;;4987834;28;20732;-81
2023/10/04 06:57:35;;;;;;;7.17;6.77;;;14.80;26.80;;;;;;4988444;28;20465;-78
2023/10/04 07:00:00;;;;;;;8.47;7.77;;;14.80;26.80;;;;;;4988085;28;20421;-80
2023/10/04 07:02:26;;;;;;;7.70;7.20;;;14.80;27.00;;;;;;4987954;28;20427;-79
2023/10/04 07:04:52;;;;;;;7.07;6.57;;;14.90;26.90;;;;;;5006995;28;20276;-79
2023/10/04 07:07:18;;;;;;;7.53;7.03;;;15.00;26.60;;;;;;4985820;28;20189;-81
2023/10/04 07:09:44;;;;;;;7.60;7.20;;;15.00;26.60;;;;;;5002851;28;20216;-79
2023/10/04 07:12:10;;;;;;;7.70;7.20;;;15.00;26.60;;;;;;5001933;28;20170;-79
2023/10/04 07:14:35;;;;;;;8.07;7.47;;;14.90;26.50;;;;;;5004555;28;20488;-79
2023/10/04 07:17:02;;;;;;;7.00;6.40;;;14.90;26.50;;;;;;4988361;28;20221;-80
2023/10/04 07:19:29;;;;;;;7.07;6.37;;;15.00;26.60;;;;;;5004794;28;20258;-79
2023/10/04 07:21:55;;;;;;;11.37;8.40;;;15.00;26.60;;;;;;5006066;28;20444;-77
2023/10/04 07:24:20;;;;;;;7.40;6.83;;;15.00;26.60;;;;;;4987363;28;20421;-78
2023/10/04 07:26:46;;;;;;;7.03;6.67;;;15.20;26.70;;;;;;4986608;28;20205;-76
2023/10/04 07:29:12;;;;;;;7.30;6.80;;;15.40;25.90;;;;;;5003591;28;20190;-79
2023/10/04 07:31:38;;;;;;;6.70;6.40;;;15.50;25.80;;;;;;4986182;28;20185;-80
2023/10/04 07:34:03;;;;;;;7.20;6.70;;;15.70;25.30;;;;;;4985622;28;20182;-82
2023/10/04 07:36:29;;;;;;;9.20;8.50;;;15.80;24.80;;;;;;5002786;28;20444;-80
2023/10/04 07:38:54;;;;;;;8.20;7.60;;;16.00;24.40;;;;;;5001998;28;20211;-78
2023/10/04 07:41:20;;;;;;;7.53;7.03;;;16.10;24.20;;;;;;4984916;28;20182;-80
2023/10/04 07:43:46;;;;;;;8.40;7.60;;;16.20;23.50;;;;;;4983369;28;20186;-80
2023/10/04 07:46:12;;;;;;;8.80;7.97;;;16.30;23.60;;;;;;4985421;28;20456;-80
2023/10/04 07:48:37;;;;;;;7.60;7.10;;;16.30;23.30;;;;;;5002551;28;20215;-80
2023/10/04 07:51:03;;;;;;;11.53;8.20;;;16.40;22.30;;;;;;5001990;28;20182;-79
2023/10/04 07:53:29;;;;;;;6.30;5.80;;;16.40;22.30;;;;;;5000295;28;20198;-79
2023/10/04 07:55:54;;;;;;;5.77;5.37;;;16.50;22.40;;;;;;5002052;28;20193;-82
2023/10/04 07:58:20;;;;;;;6.50;6.20;;;16.50;22.40;;;;;;4987252;28;20202;-82
2023/10/04 08:00:46;;;;;;;7.07;6.67;;;16.60;22.10;;;;;;4988323;28;20189;-82
2023/10/04 08:03:11;;;;;;;7.27;6.73;;;16.60;21.90;;;;;;5000955;28;20185;-80
2023/10/04 08:05:39;;;;;;;7.17;6.60;;;16.60;22.70;;;;;;4985560;28;20677;-80
2023/10/04 08:08:05;;;;;;;6.80;6.10;;;16.60;22.30;;;;;;4993336;28;20206;-82
2023/10/04 08:10:35;;;;;;;6.70;6.20;;;16.60;22.70;;;;;;5005025;28;20417;-81
2023/10/04 08:13:02;;;;;;;7.10;6.70;;;16.60;21.20;;;;;;5011425;28;20413;-81
2023/10/04 08:15:30;;;;;;;7.23;6.70;;;16.60;21.20;;;;;;4995867;28;20421;-82
2023/10/04 08:17:58;;;;;;;7.73;7.30;;;16.60;21.30;;;;;;5014267;28;20432;-82
2023/10/04 08:20:28;;;;;;;7.40;6.70;;;16.70;22.20;;;;;;4990517;28;20433;-80
2023/10/04 08:22:54;;;;;;;9.80;7.37;;;16.70;21.50;;;;;;4999697;28;20421;-82
2023/10/04 08:25:20;;;;;;;7.37;6.90;;;16.80;20.80;;;;;;4996627;28;20416;-78
2023/10/04 08:27:47;;;;;;;7.00;6.33;;;16.80;22.40;;;;;;5001108;28;20229;-77
2023/10/04 08:30:14;;;;;;;8.37;7.77;;;16.70;21.40;;;;;;5018197;28;20452;-77
2023/10/04 08:32:41;;;;;;;15.23;13.90;;;16.80;21.20;;;;;;5008925;28;20451;-79
2023/10/04 08:35:21;;;;;;;7.57;7.07;;;16.80;21.40;;;;;;5013581;28;20412;-78
2023/10/04 08:37:48;;;;;;;8.03;7.47;;;16.80;21.60;;;;;;4981024;28;20451;-81
2023/10/04 08:40:18;;;;;;;7.17;6.77;;;16.90;21.70;;;;;;5012840;28;20420;-80
2023/10/04 08:42:44;;;;;;;6.37;6.00;;;16.90;22.10;;;;;;4985803;28;20447;-80
2023/10/04 08:45:10;;;;;;;7.67;6.97;;;16.90;20.80;;;;;;5005161;28;20490;-80
2023/10/04 08:47:36;;;;;;;7.87;7.27;;;16.90;20.50;;;;;;4989624;28;20472;-79
2023/10/04 08:50:06;;;;;;;7.90;7.40;;;16.90;21.50;;;;;;4984228;28;20428;-78
2023/10/04 08:52:39;;;;;;;6.80;6.20;;;17.00;21.50;;;;;;4990690;28;20480;-80
2023/10/04 08:55:10;;;;;;;7.50;6.97;;;16.90;20.30;;;;;;4982599;28;20437;-79
2023/10/04 08:57:39;;;;;;;6.57;6.27;;;17.00;21.40;;;;;;5001139;28;21011;-79
2023/10/04 09:00:13;;;;;;;7.03;6.40;;;17.10;20.10;;;;;;4991255;28;20508;-80
2023/10/04 09:02:43;;;;;;;6.13;5.60;;;17.10;19.70;;;;;;4988113;28;20425;-81
2023/10/04 09:05:12;;;;;;;6.73;6.20;;;17.10;19.70;;;;;;5005355;28;20423;-81
2023/10/04 09:07:39;;;;;;;6.33;5.93;;;17.10;19.70;;;;;;4992667;28;20444;-81
2023/10/04 09:10:08;;;;;;;5.80;5.40;;;17.20;19.80;;;;;;4990833;28;20417;-80
2023/10/04 09:12:33;;;;;;;6.77;6.10;;;17.20;19.90;;;;;;4991595;28;20471;-80
2023/10/04 09:14:59;;;;;;;7.37;6.87;;;17.30;19.90;;;;;;5002678;28;20426;-78
2023/10/04 09:17:25;;;;;;;6.23;5.73;;;17.50;20.00;;;;;;4997053;28;20201;-77
2023/10/04 09:19:52;;;;;;;7.23;6.67;;;17.40;19.10;;;;;;4982232;28;20432;-78
2023/10/04 09:22:29;;;;;;;6.50;6.10;;;17.30;19.10;;;;;;4996047;28;20441;-79
2023/10/04 09:24:56;;;;;;;6.93;6.43;;;17.50;18.00;;;;;;4995157;28;20424;-81
2023/10/04 09:27:22;;;;;;;6.93;6.53;;;17.50;18.20;;;;;;4978171;28;20436;-81
2023/10/04 09:29:48;;;;;;;6.67;6.27;;;17.80;18.10;;;;;;4984027;28;21065;-81
2023/10/04 09:32:16;;;;;;;6.27;5.77;;;18.00;17.60;;;;;;5003821;28;20912;-81
2023/10/04 09:34:56;;;;;;;6.90;6.50;;;18.10;17.70;;;;;;5012457;28;20415;-79
2023/10/04 09:37:23;;;;;;;6.93;6.33;;;18.20;16.20;;;;;;4986566;28;20440;-80
2023/10/04 09:39:48;;;;;;;7.00;6.50;;;18.40;16.00;;;;;;4985119;28;20453;-80
2023/10/04 09:42:14;;;;;;;6.40;5.93;;;18.40;15.20;;;;;;4987869;28;20530;-80
2023/10/04 09:44:40;;;;;;;6.30;5.77;;;18.40;16.30;;;;;;5010778;28;20285;-81
2023/10/04 09:47:07;;;;;;;8.17;6.20;;;18.50;15.20;;;;;;5003862;28;20206;-80
2023/10/04 09:49:36;;;;;;;6.03;5.73;;;18.40;14.90;;;;;;4987992;28;20206;-82
2023/10/04 09:52:12;;;;;;;8.53;6.00;;;18.40;15.30;;;;;;5012092;28;20423;-81
2023/10/04 09:54:37;;;;;;;5.43;5.13;;;18.40;15.80;;;;;;4997268;28;20421;-82
2023/10/04 09:57:12;;;;;;;6.43;5.97;;;18.40;15.40;;;;;;5007953;28;20484;-82
2023/10/04 09:59:38;;;;;;;6.67;6.37;;;18.40;15.50;;;;;;5015247;28;20183;-80
2023/10/04 10:02:09;;;;;;;6.47;6.00;;;18.30;15.80;;;;;;4999803;28;20436;-81
2023/10/04 10:04:43;;;;;;;6.73;6.10;;;18.40;15.60;;;;;;4995917;28;20420;-80
2023/10/04 10:07:33;;;;;;;5.57;5.30;;;18.30;15.70;;;;;;5012002;28;20524;-80
2023/10/04 10:10:05;;;;;;;6.00;5.60;;;18.40;16.30;;;;;;4999806;28;20460;-78
2023/10/04 10:12:32;;;;;;;6.30;5.90;;;18.20;15.50;;;;;;5004784;28;20428;-80
2023/10/04 10:15:01;;;;;;;6.70;6.30;;;17.90;15.10;;;;;;4980003;28;20452;-79
2023/10/04 10:17:31;;;;;;;7.23;6.50;;;17.90;15.50;;;;;;5008363;28;20511;-79
2023/10/04 10:20:00;;;;;;;6.47;6.17;;;17.80;16.10;;;;;;5005366;28;20425;-77
2023/10/04 10:22:26;;;;;;;6.57;6.17;;;18.00;16.50;;;;;;4993928;28;20927;-79
2023/10/04 10:24:57;;;;;;;6.67;6.07;;;18.10;15.50;;;;;;5002904;28;20472;-80
2023/10/04 10:27:25;;;;;;;6.70;6.30;;;18.10;15.50;;;;;;4989211;28;20445;-79
2023/10/04 10:33:13;;;;;;;6.70;6.00;;;17.90;16.00;;;;;;5002301;28;20407;-80
2023/10/04 10:35:57;;;;;;;6.60;6.20;;;17.80;16.20;;;;;;4988167;28;20988;-81
2023/10/04 10:38:40;;;;;;;6.20;5.80;;;18.00;16.10;;;;;;4987076;28;20408;-81
2023/10/04 10:41:08;;;;;;;6.63;6.13;;;18.20;16.70;;;;;;5005195;28;20413;-81
2023/10/04 10:43:35;;;;;;;6.07;5.77;;;18.30;16.20;;;;;;5006108;28;20409;-80
2023/10/04 10:46:26;;;;;;;6.90;6.30;;;18.50;15.30;;;;;;5005367;28;20419;-80
2023/10/04 10:48:58;;;;;;;6.20;5.70;;;18.60;14.60;;;;;;5004626;28;20472;-79
2023/10/04 10:51:43;;;;;;;6.20;5.80;;;18.60;13.70;;;;;;5004672;28;20405;-80
2023/10/04 10:57:32;;;;;;;6.50;6.10;;;18.70;13.70;;;;;;5000667;28;20459;-80
2023/10/04 11:00:03;;;;;;;6.57;6.27;;;18.60;13.90;;;;;;5003659;28;20433;-78
2023/10/04 11:02:29;;;;;;;7.00;6.60;;;18.70;13.30;;;;;;4986482;28;20439;-81
2023/10/04 11:04:55;;;;;;;6.67;6.10;;;18.50;13.30;;;;;;4986077;28;20963;-79
2023/10/04 11:07:28;;;;;;;6.60;6.30;;;18.40;13.60;;;;;;4994615;28;20208;-80
2023/10/04 11:20:09;;;;;;;6.73;6.20;;;18.70;12.80;;;;;;4984017;28;20386;-79
2023/10/04 11:22:39;;;;;;;6.83;6.50;;;18.80;12.30;;;;;;4985730;28;20790;-79
2023/10/04 11:25:07;;;;;;;6.53;6.13;;;18.80;14.10;;;;;;4974494;28;20422;-82
2023/10/04 11:27:34;;;;;;;6.60;6.20;;;18.80;14.60;;;;;;4990671;28;20509;-80
2023/10/04 11:30:00;;;;;;;6.70;6.20;;;18.90;14.90;;;;;;4989059;28;20835;-80
2023/10/04 11:32:28;;;;;;;6.93;6.47;;;18.90;14.30;;;;;;4987647;28;20437;-81
2023/10/04 11:34:56;;;;;;;6.70;6.20;;;18.80;14.90;;;;;;5015885;28;20435;-79
2023/10/04 11:37:27;;;;;;;6.53;6.23;;;18.80;13.60;;;;;;5006937;28;20439;-81
2023/10/04 11:39:54;;;;;;;6.90;6.40;;;18.80;13.80;;;;;;4988291;28;20773;-79
2023/10/04 11:42:22;;;;;;;6.30;5.90;;;18.70;14.60;;;;;;5013587;28;20432;-80
2023/10/04 11:44:48;;;;;;;6.70;6.30;;;18.70;13.90;;;;;;4987908;28;20601;-80
2023/10/04 11:47:15;;;;;;;7.03;6.60;;;18.70;13.10;;;;;;5002690;28;20449;-80
2023/10/04 11:49:58;;;;;;;6.20;5.80;;;18.70;13.40;;;;;;4985898;28;20963;-79
2023/10/04 11:52:28;;;;;;;6.30;5.90;;;18.60;14.00;;;;;;4982639;28;20445;-80
2023/10/04 11:54:54;;;;;;;6.47;6.07;;;18.70;13.70;;;;;;4987227;28;20784;-79
2023/10/04 11:57:28;;;;;;;6.60;6.20;;;18.70;13.90;;;;;;4986221;28;20969;-79
2023/10/04 11:59:56;;;;;;;7.03;6.73;;;18.70;12.20;;;;;;4998202;28;20429;-79
2023/10/04 12:02:22;;;;;;;7.53;6.90;;;18.70;13.00;;;;;;4985078;28;20517;-80
2023/10/04 12:04:49;;;;;;;7.20;6.57;;;18.70;12.20;;;;;;5002666;28;20448;-80
2023/10/04 12:07:15;;;;;;;7.23;6.17;;;18.70;12.20;;;;;;4985170;28;20994;-80
2023/10/04 12:09:40;;;;;;;6.70;6.10;;;18.70;12.20;;;;;;5002040;28;20461;-80
2023/10/04 12:12:06;;;;;;;7.17;6.77;;;18.70;12.20;;;;;;4985815;28;20616;-80
2023/10/04 12:14:32;;;;;;;6.70;6.50;;;18.70;12.20;;;;;;5003064;28;20178;-81
2023/10/04 12:17:05;;;;;;;7.40;6.90;;;18.80;12.20;;;;;;4984821;28;20453;-80
2023/10/04 12:19:35;;;;;;;6.87;6.50;;;18.80;12.30;;;;;;4985129;28;20460;-80
2023/10/04 12:22:02;;;;;;;6.90;6.50;;;18.80;12.20;;;;;;5000965;28;20440;-80
2023/10/04 12:24:32;;;;;;;6.17;5.80;;;18.80;12.20;;;;;;5009985;28;20531;-81
2023/10/04 12:26:59;;;;;;;6.10;5.73;;;18.80;12.30;;;;;;4989991;28;20484;-81
2023/10/04 12:29:27;;;;;;;6.20;5.90;;;18.80;13.60;;;;;;4990089;28;20628;-80
2023/10/04 12:31:53;;;;;;;6.60;6.30;;;18.70;12.20;;;;;;4987111;28;20589;-81
2023/10/04 12:34:20;;;;;;;6.47;6.07;;;18.70;12.90;;;;;;5005128;28;20464;-81
2023/10/04 12:36:45;;;;;;;6.40;6.07;;;18.80;13.90;;;;;;4990523;28;20670;-78
2023/10/04 12:39:15;;;;;;;6.20;5.60;;;18.90;12.30;;;;;;4994312;28;20471;-81
2023/10/04 12:41:41;;;;;;;6.40;5.90;;;18.80;12.80;;;;;;4986366;28;20684;-81
2023/10/04 12:44:07;;;;;;;6.40;6.10;;;18.90;13.00;;;;;;5016864;28;20424;-79
2023/10/04 12:46:34;;;;;;;6.23;5.87;;;18.90;12.50;;;;;;4981773;28;20448;-78
2023/10/04 12:49:00;;;;;;;5.80;5.50;;;18.90;12.30;;;;;;4999340;28;20896;-79
2023/10/04 12:51:26;;;;;;;6.33;5.93;;;18.90;13.70;;;;;;4984586;28;20178;-78
2023/10/04 12:53:53;;;;;;;6.70;6.37;;;18.90;12.90;;;;;;4999715;28;20418;-79
2023/10/04 12:56:19;;;;;;;6.23;5.93;;;18.90;13.90;;;;;;4994009;28;20437;-80
2023/10/04 12:58:47;;;;;;;6.70;6.10;;;18.90;13.10;;;;;;4981228;28;20428;-81
2023/10/04 13:01:15;;;;;;;6.23;5.87;;;18.90;12.50;;;;;;4979515;28;20628;-78
2023/10/04 13:03:40;;;;;;;5.93;5.63;;;18.90;12.30;;;;;;4979300;28;20425;-75
2023/10/04 13:06:11;;;;;;;5.53;5.23;;;18.90;11.60;;;;;;4995625;28;20440;-78